createdAt,value
2024-01-18T00:00:25.401Z,979.20
2024-01-18T00:01:25.326Z,979.17
2024-01-18T00:02:25.275Z,979.23
2024-01-18T00:03:25.369Z,979.20
2024-01-18T00:04:25.560Z,979.20
2024-01-18T00:05:25.282Z,979.26
2024-01-18T00:06:25.304Z,979.30
2024-01-18T00:07:25.330Z,979.30
2024-01-18T00:08:25.216Z,979.34
2024-01-18T00:09:25.248Z,979.33
2024-01-18T00:10:25.217Z,979.32
2024-01-18T00:11:25.177Z,979.35
2024-01-18T00:12:25.199Z,979.35
2024-01-18T00:13:25.166Z,979.37
2024-01-18T00:14:25.141Z,979.38
2024-01-18T00:15:25.243Z,979.43
2024-01-18T00:16:25.156Z,979.46
2024-01-18T00:17:25.157Z,979.47
2024-01-18T00:18:25.246Z,979.55
2024-01-18T00:19:25.162Z,979.51
2024-01-18T00:20:25.074Z,979.56
2024-01-18T00:21:25.100Z,979.55
2024-01-18T00:22:25.073Z,979.58
2024-01-18T00:23:25.071Z,979.65
2024-01-18T00:24:25.065Z,979.69
2024-01-18T00:25:25.022Z,979.73
2024-01-18T00:26:25.005Z,979.73
2024-01-18T00:27:25.008Z,979.72
2024-01-18T00:28:24.998Z,979.75
2024-01-18T00:29:24.984Z,979.72
2024-01-18T00:30:24.992Z,979.69
2024-01-18T00:31:24.991Z,979.68
2024-01-18T00:32:24.935Z,979.63
2024-01-18T00:33:25.096Z,979.64
2024-01-18T00:34:24.922Z,979.59
2024-01-18T00:35:24.954Z,979.61
2024-01-18T00:36:24.920Z,979.61
2024-01-18T00:37:24.910Z,979.60
2024-01-18T00:38:24.890Z,979.64
2024-01-18T00:39:24.971Z,979.65
2024-01-18T00:40:24.875Z,979.62
2024-01-18T00:41:24.844Z,979.63
2024-01-18T00:42:24.907Z,979.73
2024-01-18T00:43:24.816Z,979.81
2024-01-18T00:44:24.842Z,979.80
2024-01-18T00:45:24.824Z,979.87
2024-01-18T00:46:24.792Z,979.93
2024-01-18T00:47:24.773Z,979.88
2024-01-18T00:48:24.840Z,979.84
2024-01-18T00:49:24.843Z,979.81
2024-01-18T00:50:24.740Z,979.84
2024-01-18T00:51:24.800Z,979.88
2024-01-18T00:52:24.757Z,979.89
2024-01-18T00:53:26.570Z,979.90
2024-01-18T00:54:24.739Z,979.81
2024-01-18T00:55:24.677Z,979.83
2024-01-18T00:56:24.718Z,979.82
2024-01-18T00:57:24.701Z,979.82
2024-01-18T00:58:24.666Z,979.82
2024-01-18T00:59:24.644Z,979.79
2024-01-18T01:00:24.660Z,979.87
2024-01-18T01:01:24.645Z,979.94
2024-01-18T01:02:24.599Z,979.92
2024-01-18T01:03:24.621Z,980.02
2024-01-18T01:04:24.604Z,980.02
2024-01-18T01:05:24.562Z,980.04
2024-01-18T01:06:24.593Z,980.11
2024-01-18T01:07:24.546Z,980.10
2024-01-18T01:08:24.610Z,980.11
2024-01-18T01:09:24.570Z,980.18
2024-01-18T01:10:24.525Z,980.15
2024-01-18T01:11:24.498Z,980.18
2024-01-18T01:12:24.494Z,980.27
2024-01-18T01:13:24.483Z,980.23
2024-01-18T01:14:24.463Z,980.14
2024-01-18T01:15:24.542Z,980.24
2024-01-18T01:16:24.459Z,980.23
2024-01-18T01:17:24.422Z,980.26
2024-01-18T01:18:24.549Z,980.25
2024-01-18T01:19:24.434Z,980.19
2024-01-18T01:20:24.411Z,980.21
2024-01-18T01:21:24.446Z,980.24
2024-01-18T01:22:24.393Z,980.22
2024-01-18T01:23:24.355Z,980.22
2024-01-18T01:24:24.358Z,980.25
2024-01-18T01:25:24.338Z,980.36
2024-01-18T01:26:24.355Z,980.46
2024-01-18T01:27:24.393Z,980.42
2024-01-18T01:28:24.317Z,980.48
2024-01-18T01:29:24.293Z,980.47
2024-01-18T01:30:24.329Z,980.47
2024-01-18T01:31:24.289Z,980.46
2024-01-18T01:32:24.300Z,980.40
2024-01-18T01:33:24.531Z,980.33
2024-01-18T01:34:24.353Z,980.37
2024-01-18T01:35:24.235Z,980.39
2024-01-18T01:36:24.249Z,980.41
2024-01-18T01:37:24.201Z,980.38
2024-01-18T01:38:24.215Z,980.38
2024-01-18T01:39:24.226Z,980.35
2024-01-18T01:40:24.162Z,980.36
2024-01-18T01:41:24.156Z,980.38
2024-01-18T01:42:24.192Z,980.40
2024-01-18T01:43:24.131Z,980.46
2024-01-18T01:44:24.140Z,980.49
2024-01-18T01:45:24.253Z,980.51
2024-01-18T01:46:24.092Z,980.54
2024-01-18T01:47:24.136Z,980.53
2024-01-18T01:48:24.178Z,980.53
2024-01-18T01:49:24.192Z,980.52
2024-01-18T01:50:24.059Z,980.53
2024-01-18T01:51:24.116Z,980.47
2024-01-18T01:52:24.038Z,980.46
2024-01-18T01:53:24.028Z,980.46
2024-01-18T01:54:24.061Z,980.39
2024-01-18T01:55:24.000Z,980.44
2024-01-18T01:56:23.995Z,980.46
2024-01-18T01:57:24.028Z,980.51
2024-01-18T01:58:23.956Z,980.54
2024-01-18T01:59:23.962Z,980.57
2024-01-18T02:00:24.021Z,980.60
2024-01-18T02:01:23.961Z,980.60
2024-01-18T02:02:23.929Z,980.63
2024-01-18T02:03:23.988Z,980.62
2024-01-18T02:04:48.082Z,980.58
2024-01-18T02:05:26.394Z,980.62
2024-01-18T02:06:23.998Z,980.64
2024-01-18T02:07:23.858Z,980.60
2024-01-18T02:08:23.859Z,980.63
2024-01-18T02:09:23.982Z,980.63
2024-01-18T02:10:24.012Z,980.71
2024-01-18T02:11:23.811Z,980.70
2024-01-18T02:12:23.817Z,980.71
2024-01-18T02:13:23.803Z,980.74
2024-01-18T02:14:23.815Z,980.80
2024-01-18T02:15:23.823Z,980.78
2024-01-18T02:16:23.748Z,980.84
2024-01-18T02:17:23.741Z,980.78
2024-01-18T02:18:23.810Z,980.78
2024-01-18T02:19:23.882Z,980.88
2024-01-18T02:20:23.725Z,980.80
2024-01-18T02:21:23.737Z,980.91
2024-01-18T02:22:23.677Z,980.87
2024-01-18T02:23:23.672Z,980.84
2024-01-18T02:24:23.695Z,980.95
2024-01-18T02:25:23.701Z,980.95
2024-01-18T02:26:23.636Z,980.93
2024-01-18T02:27:23.656Z,980.87
2024-01-18T02:28:23.610Z,980.90
2024-01-18T02:29:23.606Z,980.94
2024-01-18T02:30:24.886Z,980.96
2024-01-18T02:31:23.603Z,980.95
2024-01-18T02:32:23.592Z,980.92
2024-01-18T02:33:23.652Z,980.97
2024-01-18T02:34:23.627Z,980.94
2024-01-18T02:35:23.541Z,980.93
2024-01-18T02:36:23.568Z,980.95
2024-01-18T02:37:23.561Z,980.89
2024-01-18T02:38:23.513Z,980.95
2024-01-18T02:39:23.548Z,980.97
2024-01-18T02:40:23.480Z,980.95
2024-01-18T02:41:23.474Z,980.89
2024-01-18T02:42:23.506Z,980.84
2024-01-18T02:43:23.459Z,980.86
2024-01-18T02:44:23.428Z,980.85
2024-01-18T02:45:23.464Z,980.81
2024-01-18T02:46:23.405Z,980.88
2024-01-18T02:47:23.473Z,980.84
2024-01-18T02:48:23.462Z,980.79
2024-01-18T02:49:23.406Z,980.79
2024-01-18T02:50:23.364Z,980.86
2024-01-18T02:51:23.380Z,980.79
2024-01-18T02:52:23.338Z,980.81
2024-01-18T02:53:23.347Z,980.79
2024-01-18T02:54:23.376Z,980.72
2024-01-18T02:55:23.308Z,980.76
2024-01-18T02:56:23.287Z,980.80
2024-01-18T02:57:23.311Z,980.71
2024-01-18T02:58:23.285Z,980.75
2024-01-18T02:59:23.281Z,980.77
2024-01-18T03:00:23.329Z,980.71
2024-01-18T03:01:23.264Z,980.76
2024-01-18T03:02:23.237Z,980.73
2024-01-18T03:03:30.323Z,980.71
2024-01-18T03:04:23.244Z,980.69
2024-01-18T03:05:23.201Z,980.69
2024-01-18T03:06:23.194Z,980.66
2024-01-18T03:07:23.194Z,980.71
2024-01-18T03:08:23.228Z,980.67
2024-01-18T03:09:23.196Z,980.75
2024-01-18T03:10:23.156Z,980.70
2024-01-18T03:11:23.136Z,980.73
2024-01-18T03:12:23.136Z,980.74
2024-01-18T03:13:23.103Z,980.67
2024-01-18T03:14:23.094Z,980.76
2024-01-18T03:15:23.110Z,980.72
2024-01-18T03:16:23.080Z,980.73
2024-01-18T03:17:23.079Z,980.73
2024-01-18T03:18:23.079Z,980.75
2024-01-18T03:19:23.149Z,980.68
2024-01-18T03:20:23.026Z,980.74
2024-01-18T03:21:23.069Z,980.71
2024-01-18T03:22:23.004Z,980.75
2024-01-18T03:23:22.989Z,980.77
2024-01-18T03:24:23.002Z,980.85
2024-01-18T03:25:22.979Z,980.89
2024-01-18T03:26:22.966Z,980.85
2024-01-18T03:27:22.992Z,980.85
2024-01-18T03:28:22.932Z,980.85
2024-01-18T03:29:22.932Z,980.85
2024-01-18T03:30:22.962Z,980.78
2024-01-18T03:31:22.911Z,980.85
2024-01-18T03:32:22.884Z,980.80
2024-01-18T03:33:22.987Z,980.83
2024-01-18T03:34:22.996Z,980.89
2024-01-18T03:35:25.154Z,980.91
2024-01-18T03:36:22.972Z,980.92
2024-01-18T03:37:22.869Z,980.96
2024-01-18T03:38:22.827Z,980.95
2024-01-18T03:39:22.830Z,981.00
2024-01-18T03:40:22.796Z,980.96
2024-01-18T03:41:22.785Z,980.99
2024-01-18T03:42:22.774Z,980.97
2024-01-18T03:43:22.794Z,980.97
2024-01-18T03:44:22.746Z,981.05
2024-01-18T03:45:22.787Z,980.97
2024-01-18T03:46:22.723Z,981.02
2024-01-18T03:47:22.756Z,980.91
2024-01-18T03:48:22.776Z,980.94
2024-01-18T03:49:22.744Z,980.93
2024-01-18T03:50:22.672Z,980.96
2024-01-18T03:51:22.741Z,980.95
2024-01-18T03:52:22.657Z,980.94
2024-01-18T03:53:22.655Z,980.89
2024-01-18T03:54:22.736Z,980.88
2024-01-18T03:55:22.644Z,980.88
2024-01-18T03:56:22.628Z,980.91
2024-01-18T03:57:22.659Z,980.92
2024-01-18T03:58:22.603Z,980.92
2024-01-18T03:59:22.576Z,980.86
2024-01-18T04:00:22.620Z,980.91
2024-01-18T04:01:22.560Z,980.89
2024-01-18T04:02:22.541Z,980.90
2024-01-18T04:03:22.594Z,980.90
2024-01-18T04:04:22.653Z,980.93
2024-01-18T04:05:22.585Z,980.88
2024-01-18T04:06:22.606Z,980.81
2024-01-18T04:07:22.496Z,980.91
2024-01-18T04:08:22.468Z,980.93
2024-01-18T04:09:22.564Z,980.95
2024-01-18T04:10:22.458Z,980.92
2024-01-18T04:11:22.488Z,980.96
2024-01-18T04:12:22.486Z,980.92
2024-01-18T04:13:22.422Z,980.95
2024-01-18T04:14:22.411Z,980.97
2024-01-18T04:15:22.446Z,980.95
2024-01-18T04:16:22.382Z,980.98
2024-01-18T04:17:22.466Z,981.01
2024-01-18T04:18:22.474Z,981.02
2024-01-18T04:19:22.443Z,981.02
2024-01-18T04:20:22.358Z,980.96
2024-01-18T04:21:22.354Z,981.05
2024-01-18T04:22:22.320Z,981.15
2024-01-18T04:23:22.315Z,981.06
2024-01-18T04:24:22.304Z,981.18
2024-01-18T04:25:22.292Z,981.14
2024-01-18T04:26:22.274Z,981.17
2024-01-18T04:27:22.291Z,981.18
2024-01-18T04:28:22.289Z,981.20
2024-01-18T04:29:22.259Z,981.16
2024-01-18T04:30:22.251Z,981.20
2024-01-18T04:31:22.222Z,981.26
2024-01-18T04:32:22.208Z,981.28
2024-01-18T04:33:22.260Z,981.27
2024-01-18T04:34:22.194Z,981.29
2024-01-18T04:35:22.229Z,981.29
2024-01-18T04:36:22.220Z,981.25
2024-01-18T04:37:22.148Z,981.22
2024-01-18T04:38:22.130Z,981.26
2024-01-18T04:39:22.149Z,981.24
2024-01-18T04:40:22.136Z,981.29
2024-01-18T04:41:22.108Z,981.37
2024-01-18T04:42:22.092Z,981.36
2024-01-18T04:43:22.108Z,981.42
2024-01-18T04:44:22.077Z,981.43
2024-01-18T04:45:22.108Z,981.44
2024-01-18T04:46:22.037Z,981.45
2024-01-18T04:47:22.054Z,981.43
2024-01-18T04:48:22.104Z,981.43
2024-01-18T04:49:22.022Z,981.48
2024-01-18T04:50:22.038Z,981.46
2024-01-18T04:51:22.024Z,981.46
2024-01-18T04:52:22.013Z,981.53
2024-01-18T04:53:21.964Z,981.55
2024-01-18T04:54:21.961Z,981.57
2024-01-18T04:55:21.961Z,981.58
2024-01-18T04:56:21.937Z,981.61
2024-01-18T04:57:21.930Z,981.67
2024-01-18T04:58:21.904Z,981.61
2024-01-18T04:59:21.922Z,981.66
2024-01-18T05:00:21.908Z,981.62
2024-01-18T05:01:21.933Z,981.63
2024-01-18T05:02:21.869Z,981.63
2024-01-18T05:03:21.936Z,981.65
2024-01-18T05:04:22.030Z,981.59
2024-01-18T05:05:22.014Z,981.59
2024-01-18T05:06:22.585Z,981.63
2024-01-18T05:07:21.864Z,981.66
2024-01-18T05:08:21.803Z,981.71
2024-01-18T05:09:21.878Z,981.76
2024-01-18T05:10:21.790Z,981.79
2024-01-18T05:11:21.771Z,981.81
2024-01-18T05:12:21.803Z,981.76
2024-01-18T05:13:21.760Z,981.79
2024-01-18T05:14:21.735Z,981.81
2024-01-18T05:15:21.747Z,981.79
2024-01-18T05:16:21.711Z,981.76
2024-01-18T05:17:21.692Z,981.79
2024-01-18T05:18:21.794Z,981.83
2024-01-18T05:19:21.698Z,981.87
2024-01-18T05:20:21.664Z,981.84
2024-01-18T05:21:21.675Z,981.78
2024-01-18T05:22:21.636Z,981.75
2024-01-18T05:23:21.645Z,981.75
2024-01-18T05:24:21.632Z,981.73
2024-01-18T05:25:21.634Z,981.79
2024-01-18T05:26:21.638Z,981.71
2024-01-18T05:27:21.585Z,981.75
2024-01-18T05:28:21.565Z,981.78
2024-01-18T05:29:21.552Z,981.80
2024-01-18T05:30:21.562Z,981.77
2024-01-18T05:31:21.537Z,981.79
2024-01-18T05:32:21.520Z,981.84
2024-01-18T05:33:21.634Z,981.89
2024-01-18T05:34:21.661Z,981.99
2024-01-18T05:35:21.506Z,982.04
2024-01-18T05:36:21.508Z,982.01
2024-01-18T05:37:21.473Z,982.07
2024-01-18T05:38:21.443Z,982.06
2024-01-18T05:39:21.463Z,982.05
2024-01-18T05:40:21.411Z,982.05
2024-01-18T05:41:21.428Z,982.06
2024-01-18T05:42:21.476Z,982.03
2024-01-18T05:43:21.398Z,982.04
2024-01-18T05:44:21.385Z,982.08
2024-01-18T05:45:21.429Z,982.06
2024-01-18T05:46:23.278Z,982.06
2024-01-18T05:47:21.368Z,982.09
2024-01-18T05:48:21.435Z,982.08
2024-01-18T05:49:21.427Z,982.07
2024-01-18T05:50:21.300Z,982.12
2024-01-18T05:51:21.383Z,982.13
2024-01-18T05:52:21.277Z,982.12
2024-01-18T05:53:21.282Z,982.12
2024-01-18T05:54:21.392Z,982.14
2024-01-18T05:55:21.250Z,982.22
2024-01-18T05:56:21.268Z,982.15
2024-01-18T05:57:21.261Z,982.16
2024-01-18T05:58:22.583Z,982.08
2024-01-18T05:59:21.942Z,982.14
2024-01-18T06:00:21.613Z,982.13
2024-01-18T06:01:21.202Z,982.17
2024-01-18T06:02:21.190Z,982.14
2024-01-18T06:03:21.208Z,982.22
2024-01-18T06:04:21.162Z,982.22
2024-01-18T06:05:21.160Z,982.23
2024-01-18T06:06:21.206Z,982.25
2024-01-18T06:07:21.368Z,982.28
2024-01-18T06:08:21.088Z,982.34
2024-01-18T06:09:21.155Z,982.27
2024-01-18T06:10:21.089Z,982.29
2024-01-18T06:11:21.070Z,982.30
2024-01-18T06:12:21.089Z,982.33
2024-01-18T06:13:21.050Z,982.43
2024-01-18T06:14:21.018Z,982.45
2024-01-18T06:15:21.076Z,982.46
2024-01-18T06:16:21.014Z,982.48
2024-01-18T06:17:20.985Z,982.48
2024-01-18T06:18:21.105Z,982.55
2024-01-18T06:19:21.059Z,982.51
2024-01-18T06:20:20.976Z,982.51
2024-01-18T06:21:20.981Z,982.57
2024-01-18T06:22:20.945Z,982.55
2024-01-18T06:23:20.928Z,982.56
2024-01-18T06:24:20.945Z,982.58
2024-01-18T06:25:20.920Z,982.45
2024-01-18T06:26:20.894Z,982.54
2024-01-18T06:27:20.908Z,982.48
2024-01-18T06:28:20.870Z,982.55
2024-01-18T06:29:20.853Z,982.55
2024-01-18T06:30:21.004Z,982.50
2024-01-18T06:31:20.839Z,982.49
2024-01-18T06:32:20.850Z,982.49
2024-01-18T06:33:20.917Z,982.54
2024-01-18T06:34:20.956Z,982.59
2024-01-18T06:35:20.789Z,982.67
2024-01-18T06:36:20.821Z,982.72
2024-01-18T06:37:20.787Z,982.69
2024-01-18T06:38:20.767Z,982.71
2024-01-18T06:39:20.812Z,982.75
2024-01-18T06:40:20.740Z,982.72
2024-01-18T06:41:20.720Z,982.79
2024-01-18T06:42:20.778Z,982.81
2024-01-18T06:43:20.690Z,982.86
2024-01-18T06:44:20.684Z,982.88
2024-01-18T06:45:20.676Z,982.88
2024-01-18T06:46:20.661Z,982.85
2024-01-18T06:47:20.817Z,982.86
2024-01-18T06:48:20.663Z,982.76
2024-01-18T06:49:20.656Z,982.80
2024-01-18T06:50:20.629Z,982.87
2024-01-18T06:51:20.623Z,982.87
2024-01-18T06:52:20.588Z,982.85
2024-01-18T06:53:20.568Z,982.84
2024-01-18T06:54:20.619Z,982.91
2024-01-18T06:55:20.552Z,982.91
2024-01-18T06:56:20.560Z,982.97
2024-01-18T06:57:20.557Z,983.02
2024-01-18T06:58:20.528Z,983.07
2024-01-18T06:59:20.516Z,983.02
2024-01-18T07:00:20.539Z,983.07
2024-01-18T07:01:20.665Z,983.08
2024-01-18T07:02:20.474Z,983.08
2024-01-18T07:03:20.487Z,983.16
2024-01-18T07:04:20.469Z,983.18
2024-01-18T07:05:20.434Z,983.21
2024-01-18T07:06:20.492Z,983.25
2024-01-18T07:07:20.444Z,983.22
2024-01-18T07:08:20.404Z,983.21
2024-01-18T07:09:20.419Z,983.21
2024-01-18T07:10:20.374Z,983.22
2024-01-18T07:11:20.368Z,983.26
2024-01-18T07:12:20.428Z,983.19
2024-01-18T07:13:20.342Z,983.31
2024-01-18T07:14:20.339Z,983.30
2024-01-18T07:15:20.332Z,983.30
2024-01-18T07:16:20.327Z,983.35
2024-01-18T07:17:20.351Z,983.39
2024-01-18T07:18:20.390Z,983.40
2024-01-18T07:19:20.368Z,983.38
2024-01-18T07:20:20.282Z,983.41
2024-01-18T07:21:20.292Z,983.35
2024-01-18T07:22:20.249Z,983.40
2024-01-18T07:23:20.272Z,983.43
2024-01-18T07:24:20.274Z,983.40
2024-01-18T07:25:20.205Z,983.40
2024-01-18T07:26:20.209Z,983.44
2024-01-18T07:27:20.189Z,983.48
2024-01-18T07:28:20.197Z,983.41
2024-01-18T07:29:20.198Z,983.48
2024-01-18T07:30:20.223Z,983.48
2024-01-18T07:31:20.132Z,983.50
2024-01-18T07:32:20.142Z,983.53
2024-01-18T07:33:20.236Z,983.50
2024-01-18T07:34:20.265Z,983.49
2024-01-18T07:35:20.122Z,983.57
2024-01-18T07:36:20.173Z,983.60
2024-01-18T07:37:20.161Z,983.57
2024-01-18T07:38:20.065Z,983.57
2024-01-18T07:39:20.093Z,983.58
2024-01-18T07:40:20.068Z,983.61
2024-01-18T07:41:20.049Z,983.59
2024-01-18T07:42:20.059Z,983.63
2024-01-18T07:43:19.996Z,983.60
2024-01-18T07:44:19.994Z,983.57
2024-01-18T07:45:20.012Z,983.63
2024-01-18T07:46:19.998Z,983.63
2024-01-18T07:47:26.701Z,983.64
2024-01-18T07:48:20.012Z,983.66
2024-01-18T07:49:19.937Z,983.69
2024-01-18T07:50:30.440Z,983.70
2024-01-18T07:51:20.980Z,983.67
2024-01-18T07:52:19.923Z,983.67
2024-01-18T07:53:19.896Z,983.69
2024-01-18T07:54:19.944Z,983.67
2024-01-18T07:55:22.508Z,983.66
2024-01-18T07:56:19.858Z,983.65
2024-01-18T07:57:19.917Z,983.63
2024-01-18T07:58:19.841Z,983.66
2024-01-18T07:59:19.817Z,983.73
2024-01-18T08:00:19.851Z,983.77
2024-01-18T08:01:19.896Z,983.80
2024-01-18T08:02:19.817Z,983.79
2024-01-18T08:03:19.836Z,983.81
2024-01-18T08:04:19.845Z,983.81
2024-01-18T08:05:19.757Z,983.88
2024-01-18T08:06:19.954Z,983.85
2024-01-18T08:07:19.788Z,983.85
2024-01-18T08:08:19.761Z,983.89
2024-01-18T08:09:19.727Z,983.89
2024-01-18T08:10:19.706Z,983.97
2024-01-18T08:11:19.684Z,983.97
2024-01-18T08:12:19.688Z,983.98
2024-01-18T08:13:19.672Z,983.98
2024-01-18T08:14:19.660Z,983.99
2024-01-18T08:15:19.697Z,984.04
2024-01-18T08:16:19.630Z,984.05
2024-01-18T08:17:19.607Z,984.02
2024-01-18T08:18:19.826Z,984.07
2024-01-18T08:19:19.759Z,984.05
2024-01-18T08:20:19.582Z,984.08
2024-01-18T08:21:19.617Z,984.08
2024-01-18T08:22:19.558Z,984.17
2024-01-18T08:23:19.567Z,984.19
2024-01-18T08:24:19.563Z,984.11
2024-01-18T08:25:19.542Z,984.26
2024-01-18T08:26:19.525Z,984.25
2024-01-18T08:27:19.570Z,984.28
2024-01-18T08:28:19.518Z,984.34
2024-01-18T08:29:19.477Z,984.31
2024-01-18T08:30:19.513Z,984.34
2024-01-18T08:31:19.471Z,984.45
2024-01-18T08:32:19.473Z,984.46
2024-01-18T08:33:19.577Z,984.41
2024-01-18T08:34:19.449Z,984.43
2024-01-18T08:35:19.420Z,984.49
2024-01-18T08:36:19.489Z,984.47
2024-01-18T08:37:19.632Z,984.52
2024-01-18T08:38:19.391Z,984.58
2024-01-18T08:39:19.623Z,984.53
2024-01-18T08:40:19.374Z,984.67
2024-01-18T08:41:19.355Z,984.62
2024-01-18T08:42:19.390Z,984.65
2024-01-18T08:43:19.320Z,984.67
2024-01-18T08:44:19.347Z,984.61
2024-01-18T08:45:19.333Z,984.53
2024-01-18T08:46:19.371Z,984.61
2024-01-18T08:47:20.647Z,984.58
2024-01-18T08:48:19.357Z,984.61
2024-01-18T08:49:19.399Z,984.66
2024-01-18T08:50:19.257Z,984.65
2024-01-18T08:51:19.400Z,984.66
2024-01-18T08:52:19.353Z,984.68
2024-01-18T08:53:19.204Z,984.72
2024-01-18T08:54:19.212Z,984.75
2024-01-18T08:55:19.186Z,984.80
2024-01-18T08:56:24.993Z,984.78
2024-01-18T08:57:20.232Z,984.74
2024-01-18T08:58:19.153Z,984.75
2024-01-18T08:59:19.169Z,984.77
2024-01-18T09:00:19.192Z,984.77
2024-01-18T09:01:19.162Z,984.75
2024-01-18T09:02:23.750Z,984.78
2024-01-18T09:03:20.270Z,984.76
2024-01-18T09:04:26.238Z,984.82
2024-01-18T09:05:19.111Z,984.78
2024-01-18T09:06:19.089Z,984.79
2024-01-18T09:07:19.115Z,984.81
2024-01-18T09:08:19.175Z,984.82
2024-01-18T09:09:19.054Z,984.86
2024-01-18T09:10:19.039Z,984.85
2024-01-18T09:11:18.997Z,984.90
2024-01-18T09:12:19.019Z,984.92
2024-01-18T09:13:20.471Z,984.94
2024-01-18T09:14:18.966Z,984.93
2024-01-18T09:15:19.023Z,984.99
2024-01-18T09:16:18.954Z,984.98
2024-01-18T09:17:18.930Z,984.97
2024-01-18T09:18:19.030Z,985.00
2024-01-18T09:19:19.023Z,985.00
2024-01-18T09:20:18.962Z,984.99
2024-01-18T09:21:18.930Z,985.02
2024-01-18T09:22:18.900Z,984.94
2024-01-18T09:23:18.866Z,985.04
2024-01-18T09:24:18.896Z,985.07
2024-01-18T09:25:18.866Z,985.07
2024-01-18T09:26:18.831Z,985.13
2024-01-18T09:27:18.818Z,985.14
2024-01-18T09:28:18.831Z,985.18
2024-01-18T09:29:18.788Z,985.17
2024-01-18T09:30:18.829Z,985.25
2024-01-18T09:31:30.414Z,985.20
2024-01-18T09:32:19.767Z,985.26
2024-01-18T09:33:18.831Z,985.29
2024-01-18T09:34:18.736Z,985.28
2024-01-18T09:35:18.774Z,985.34
2024-01-18T09:36:18.730Z,985.36
2024-01-18T09:37:18.728Z,985.38
2024-01-18T09:38:18.714Z,985.37
2024-01-18T09:39:18.769Z,985.37
2024-01-18T09:40:18.673Z,985.40
2024-01-18T09:41:18.666Z,985.37
2024-01-18T09:42:18.758Z,985.44
2024-01-18T09:43:19.586Z,985.42
2024-01-18T09:44:18.632Z,985.46
2024-01-18T09:45:18.657Z,985.41
2024-01-18T09:46:18.621Z,985.42
2024-01-18T09:47:18.624Z,985.50
2024-01-18T09:48:18.662Z,985.51
2024-01-18T09:49:18.569Z,985.52
2024-01-18T09:50:18.642Z,985.55
2024-01-18T09:51:18.556Z,985.60
2024-01-18T09:52:18.617Z,985.61
2024-01-18T09:53:18.517Z,985.69
2024-01-18T09:54:18.609Z,985.66
2024-01-18T09:55:18.496Z,985.78
2024-01-18T09:56:18.490Z,985.72
2024-01-18T09:57:18.565Z,985.74
2024-01-18T09:58:18.481Z,985.80
2024-01-18T09:59:18.459Z,985.75
2024-01-18T10:00:18.480Z,985.76
2024-01-18T10:01:18.423Z,985.85
2024-01-18T10:02:18.438Z,985.87
2024-01-18T10:03:18.546Z,985.92
2024-01-18T10:04:18.390Z,985.91
2024-01-18T10:05:18.386Z,985.94
2024-01-18T10:06:18.499Z,985.96
2024-01-18T10:07:18.532Z,985.91
2024-01-18T10:08:18.407Z,985.98
2024-01-18T10:09:18.370Z,986.01
2024-01-18T10:10:18.320Z,986.02
2024-01-18T10:11:18.311Z,985.97
2024-01-18T10:12:18.317Z,986.08
2024-01-18T10:13:18.291Z,986.06
2024-01-18T10:14:18.312Z,986.11
2024-01-18T10:15:18.321Z,986.14
2024-01-18T10:16:18.273Z,986.08
2024-01-18T10:17:18.260Z,986.10
2024-01-18T10:18:18.266Z,986.16
2024-01-18T10:19:18.240Z,986.21
2024-01-18T10:20:18.286Z,986.22
2024-01-18T10:21:18.209Z,986.24
2024-01-18T10:22:18.184Z,986.24
2024-01-18T10:23:18.179Z,986.30
2024-01-18T10:24:18.211Z,986.24
2024-01-18T10:25:18.156Z,986.24
2024-01-18T10:26:18.139Z,986.28
2024-01-18T10:27:18.149Z,986.26
2024-01-18T10:28:18.112Z,986.21
2024-01-18T10:29:18.111Z,986.23
2024-01-18T10:30:18.189Z,986.24
2024-01-18T10:31:18.094Z,986.23
2024-01-18T10:32:18.110Z,986.30
2024-01-18T10:33:18.290Z,986.29
2024-01-18T10:34:18.086Z,986.31
2024-01-18T10:35:18.052Z,986.37
2024-01-18T10:36:18.053Z,986.38
2024-01-18T10:37:18.008Z,986.42
2024-01-18T10:38:18.001Z,986.43
2024-01-18T10:39:18.138Z,986.46
2024-01-18T10:40:17.981Z,986.47
2024-01-18T10:41:17.995Z,986.52
2024-01-18T10:42:18.104Z,986.51
2024-01-18T10:43:17.941Z,986.50
2024-01-18T10:44:17.919Z,986.56
2024-01-18T10:45:17.944Z,986.57
2024-01-18T10:46:17.920Z,986.55
2024-01-18T10:47:17.949Z,986.59
2024-01-18T10:48:17.986Z,986.65
2024-01-18T10:49:17.885Z,986.68
2024-01-18T10:50:17.852Z,986.62
2024-01-18T10:51:17.876Z,986.66
2024-01-18T10:52:17.859Z,986.67
2024-01-18T10:53:17.841Z,986.69
2024-01-18T10:54:25.822Z,986.67
2024-01-18T10:55:18.898Z,986.61
2024-01-18T10:56:17.790Z,986.60
2024-01-18T10:57:17.851Z,986.61
2024-01-18T10:58:17.768Z,986.59
2024-01-18T10:59:17.754Z,986.56
2024-01-18T11:00:17.880Z,986.61
2024-01-18T11:01:17.799Z,986.67
2024-01-18T11:02:17.760Z,986.66
2024-01-18T11:03:17.779Z,986.68
2024-01-18T11:04:17.772Z,986.67
2024-01-18T11:05:17.775Z,986.69
2024-01-18T11:06:17.753Z,986.74
2024-01-18T11:07:17.840Z,986.74
2024-01-18T11:08:17.663Z,986.75
2024-01-18T11:09:17.649Z,986.76
2024-01-18T11:10:17.627Z,986.85
2024-01-18T11:11:17.616Z,986.83
2024-01-18T11:12:17.648Z,986.82
2024-01-18T11:13:17.639Z,986.87
2024-01-18T11:14:17.572Z,986.83
2024-01-18T11:15:17.637Z,986.86
2024-01-18T11:16:17.548Z,986.78
2024-01-18T11:17:17.557Z,986.83
2024-01-18T11:18:17.621Z,986.86
2024-01-18T11:19:17.636Z,986.85
2024-01-18T11:20:17.503Z,986.84
2024-01-18T11:21:17.596Z,986.86
2024-01-18T11:22:17.496Z,986.87
2024-01-18T11:23:17.491Z,986.88
2024-01-18T11:24:17.488Z,986.88
2024-01-18T11:25:17.468Z,986.90
2024-01-18T11:26:17.439Z,986.87
2024-01-18T11:27:17.505Z,986.88
2024-01-18T11:28:17.411Z,986.88
2024-01-18T11:29:17.479Z,986.89
2024-01-18T11:30:17.424Z,986.93
2024-01-18T11:31:17.388Z,986.94
2024-01-18T11:32:17.381Z,986.99
2024-01-18T11:33:17.646Z,987.00
2024-01-18T11:34:17.350Z,987.01
2024-01-18T11:35:17.373Z,987.03
2024-01-18T11:36:17.457Z,987.10
2024-01-18T11:37:17.325Z,987.10
2024-01-18T11:38:17.314Z,987.11
2024-01-18T11:39:17.374Z,987.11
2024-01-18T11:40:17.307Z,987.12
2024-01-18T11:41:17.281Z,987.14
2024-01-18T11:42:17.278Z,987.14
2024-01-18T11:43:17.241Z,987.13
2024-01-18T11:44:17.226Z,987.12
2024-01-18T11:45:17.374Z,987.18
2024-01-18T11:46:17.520Z,987.18
2024-01-18T11:47:17.213Z,987.20
2024-01-18T11:48:17.234Z,987.22
2024-01-18T11:49:17.374Z,987.28
2024-01-18T11:50:17.261Z,987.23
2024-01-18T11:51:17.169Z,987.23
2024-01-18T11:52:17.130Z,987.29
2024-01-18T11:53:17.153Z,987.27
2024-01-18T11:54:17.144Z,987.24
2024-01-18T11:55:17.117Z,987.25
2024-01-18T11:56:17.087Z,987.26
2024-01-18T11:57:17.102Z,987.31
2024-01-18T11:58:17.090Z,987.26
2024-01-18T11:59:17.079Z,987.26
2024-01-18T12:00:17.046Z,987.27
2024-01-18T12:01:17.242Z,987.28
2024-01-18T12:02:17.011Z,987.26
2024-01-18T12:03:17.084Z,987.30
2024-01-18T12:04:17.041Z,987.36
2024-01-18T12:05:16.996Z,987.33
2024-01-18T12:06:17.041Z,987.34
2024-01-18T12:07:17.112Z,987.34
2024-01-18T12:08:16.940Z,987.36
2024-01-18T12:09:17.024Z,987.36
2024-01-18T12:10:16.962Z,987.36
2024-01-18T12:11:16.921Z,987.37
2024-01-18T12:12:16.925Z,987.42
2024-01-18T12:13:17.044Z,987.38
2024-01-18T12:14:16.877Z,987.34
2024-01-18T12:15:16.907Z,987.36
2024-01-18T12:16:16.851Z,987.41
2024-01-18T12:17:16.867Z,987.42
2024-01-18T12:18:16.926Z,987.46
2024-01-18T12:19:16.845Z,987.45
2024-01-18T12:20:16.898Z,987.52
2024-01-18T12:21:16.835Z,987.49
2024-01-18T12:22:16.791Z,987.51
2024-01-18T12:23:16.854Z,987.52
2024-01-18T12:24:16.799Z,987.49
2024-01-18T12:25:16.770Z,987.51
2024-01-18T12:26:16.737Z,987.52
2024-01-18T12:27:16.757Z,987.52
2024-01-18T12:28:16.728Z,987.56